createdAt,value
2022-08-14T00:02:56.081Z,4.20
2022-08-14T00:09:00.121Z,4.60
2022-08-14T00:15:06.100Z,4.93
2022-08-14T00:21:10.853Z,3.95
2022-08-14T00:27:13.292Z,4.47
2022-08-14T00:33:18.968Z,4.75
2022-08-14T00:39:20.940Z,4.38
2022-08-14T00:45:22.777Z,4.40
2022-08-14T00:51:25.163Z,4.70
2022-08-14T00:57:39.485Z,4.30
2022-08-14T01:03:42.550Z,4.30
2022-08-14T01:09:49.802Z,4.40
2022-08-14T01:15:58.585Z,4.53
2022-08-14T01:22:07.372Z,4.30
2022-08-14T01:28:46.671Z,4.55
2022-08-14T01:35:18.699Z,4.32
2022-08-14T01:40:58.659Z,4.47
2022-08-14T01:47:05.973Z,4.50
2022-08-14T01:53:08.241Z,4.55
2022-08-14T01:59:18.670Z,4.25
2022-08-14T02:05:21.477Z,4.68
2022-08-14T02:11:25.957Z,4.88
2022-08-14T02:23:32.660Z,4.22
2022-08-14T02:30:00.435Z,4.65
2022-08-14T02:37:02.657Z,4.75
2022-08-14T02:42:23.536Z,4.72
2022-08-14T02:49:03.089Z,4.65
2022-08-14T02:55:05.576Z,4.72
2022-08-14T03:01:10.384Z,4.63
2022-08-14T03:07:12.232Z,4.80
2022-08-14T03:13:21.446Z,5.32
2022-08-14T03:19:23.696Z,4.90
2022-08-14T03:25:26.081Z,5.45
2022-08-14T03:31:29.465Z,5.40
2022-08-14T03:39:09.199Z,5.97
2022-08-14T03:44:01.624Z,5.00
2022-08-14T03:50:27.927Z,5.22
2022-08-14T03:56:34.169Z,6.00
2022-08-14T04:02:47.062Z,5.20
2022-08-14T04:08:50.075Z,5.40
2022-08-14T04:14:52.834Z,5.38
2022-08-14T04:20:55.845Z,5.22
2022-08-14T04:26:57.850Z,5.13
2022-08-14T04:33:10.598Z,5.20
2022-08-14T04:39:37.262Z,6.03
2022-08-14T04:45:51.002Z,5.43
2022-08-14T04:51:55.763Z,5.13
2022-08-14T04:57:58.321Z,5.85
2022-08-14T05:04:00.632Z,5.57
2022-08-14T05:10:13.017Z,6.32
2022-08-14T05:16:15.089Z,6.30
2022-08-14T05:22:19.422Z,5.78
2022-08-14T05:28:26.391Z,5.85
2022-08-14T05:34:31.882Z,5.55
2022-08-14T05:40:34.856Z,5.15
2022-08-14T05:46:37.173Z,6.35
2022-08-14T05:52:39.864Z,5.80
2022-08-14T05:58:41.785Z,6.05
2022-08-14T06:04:48.538Z,5.60
2022-08-14T06:10:53.380Z,6.07
2022-08-14T06:16:55.634Z,6.10
2022-08-14T06:22:58.488Z,6.20
2022-08-14T06:29:00.848Z,6.20
2022-08-14T06:35:13.201Z,6.20
2022-08-14T06:41:15.276Z,5.93
2022-08-14T06:47:23.173Z,5.95
2022-08-14T06:53:27.740Z,6.20
2022-08-14T06:59:30.189Z,6.00
2022-08-14T07:05:57.647Z,6.47
2022-08-14T07:12:00.633Z,6.47
2022-08-14T07:18:08.899Z,5.63
2022-08-14T07:24:21.970Z,6.13
2022-08-14T07:30:34.245Z,5.63
2022-08-14T07:36:36.906Z,5.82
2022-08-14T07:42:39.283Z,6.30
2022-08-14T07:48:44.096Z,6.28
2022-08-14T07:54:50.664Z,6.75
2022-08-14T08:00:56.707Z,5.97
2022-08-14T08:07:00.748Z,5.93
2022-08-14T08:13:15.443Z,6.10
2022-08-14T08:19:19.103Z,5.90
2022-08-14T08:25:21.435Z,5.93
2022-08-14T08:31:23.189Z,6.25
2022-08-14T08:37:40.308Z,6.35
2022-08-14T08:43:46.214Z,5.45
2022-08-14T08:56:03.520Z,6.43
2022-08-14T09:02:10.610Z,6.50
2022-08-14T09:08:30.227Z,5.60
2022-08-14T09:14:36.448Z,6.57
2022-08-14T09:20:44.731Z,6.32
2022-08-14T09:26:49.274Z,5.82
2022-08-14T09:33:15.781Z,6.00
2022-08-14T09:39:50.011Z,5.97
2022-08-14T09:45:53.883Z,6.13
2022-08-14T09:52:05.021Z,5.78
2022-08-14T09:58:38.481Z,5.88
2022-08-14T10:04:46.057Z,6.03
2022-08-14T10:10:57.253Z,5.75
2022-08-14T10:17:08.279Z,5.57
2022-08-14T10:23:18.928Z,6.03
2022-08-14T10:29:34.579Z,5.43
2022-08-14T10:35:47.892Z,6.00
2022-08-14T10:42:16.283Z,5.80
2022-08-14T10:48:24.561Z,5.65
2022-08-14T10:54:44.192Z,5.80
2022-08-14T11:00:57.860Z,5.38
2022-08-14T11:06:59.683Z,5.53
2022-08-14T11:13:02.075Z,5.43
2022-08-14T11:19:08.470Z,4.25
2022-08-14T11:25:13.976Z,4.82
2022-08-14T11:31:23.633Z,4.80
2022-08-14T11:37:36.916Z,4.88
2022-08-14T11:43:46.898Z,4.70
2022-08-14T11:49:57.934Z,5.05
2022-08-14T11:56:06.103Z,4.85
2022-08-14T12:03:01.251Z,4.55
2022-08-14T12:08:39.164Z,5.03
2022-08-14T12:15:00.123Z,5.07
2022-08-14T12:21:20.185Z,4.60
2022-08-14T12:27:25.004Z,5.35
2022-08-14T12:33:33.400Z,4.93
2022-08-14T12:39:40.189Z,4.30
2022-08-14T12:45:50.445Z,4.88
2022-08-14T12:52:00.594Z,4.47
2022-08-14T12:58:28.720Z,4.78
2022-08-14T13:04:31.241Z,4.70
2022-08-14T13:10:47.537Z,4.53
2022-08-14T13:16:58.734Z,4.43
2022-08-14T13:23:02.397Z,4.60
2022-08-14T13:29:06.372Z,5.03
2022-08-14T13:35:17.587Z,4.75
2022-08-14T13:41:27.998Z,4.53
2022-08-14T13:47:33.761Z,4.05
2022-08-14T13:53:52.619Z,4.88
2022-08-14T14:00:13.337Z,4.82
2022-08-14T14:06:23.357Z,4.93
2022-08-14T14:12:37.858Z,4.20
2022-08-14T14:18:49.200Z,4.30
2022-08-14T14:24:54.552Z,4.13
2022-08-14T14:31:01.103Z,4.03
2022-08-14T14:37:11.174Z,3.70
2022-08-14T14:43:15.481Z,4.43
2022-08-14T14:49:21.984Z,4.25
2022-08-14T14:55:23.901Z,4.75
2022-08-14T15:01:28.725Z,4.22
2022-08-14T15:07:31.974Z,4.90
2022-08-14T15:13:37.587Z,4.32
2022-08-14T15:19:56.876Z,4.40
2022-08-14T15:26:02.056Z,4.22
2022-08-14T15:32:04.767Z,4.50
2022-08-14T15:38:11.096Z,4.40
2022-08-14T15:44:25.275Z,4.88
2022-08-14T15:50:30.366Z,4.60
2022-08-14T15:56:42.460Z,4.35
2022-08-14T16:02:45.254Z,4.68
2022-08-14T16:08:58.805Z,4.82
2022-08-14T16:15:10.224Z,4.22
2022-08-14T16:21:13.772Z,4.78
2022-08-14T16:27:15.580Z,4.35
2022-08-14T16:33:27.878Z,4.95
2022-08-14T16:39:46.607Z,4.40
2022-08-14T16:45:53.891Z,4.20
2022-08-14T16:51:55.978Z,4.07
2022-08-14T16:57:58.717Z,4.10
2022-08-14T17:04:25.337Z,4.35
2022-08-14T17:10:27.881Z,4.30
2022-08-14T17:16:35.949Z,4.50
2022-08-14T17:22:47.475Z,4.50
2022-08-14T17:29:24.075Z,4.43
2022-08-14T17:35:57.737Z,4.47
2022-08-14T17:42:03.238Z,4.45
2022-08-14T17:48:09.994Z,4.93
2022-08-14T17:54:44.522Z,4.85
2022-08-14T18:00:47.800Z,5.03
2022-08-14T18:06:57.887Z,4.88
2022-08-14T18:13:10.724Z,4.82
2022-08-14T18:19:12.733Z,5.13
2022-08-14T18:25:18.246Z,4.70
2022-08-14T18:31:20.809Z,4.72
2022-08-14T18:37:23.063Z,5.23
2022-08-14T18:43:42.156Z,5.60
2022-08-14T18:49:55.099Z,4.60
2022-08-14T18:56:09.326Z,4.90
2022-08-14T19:02:30.251Z,5.28
2022-08-14T19:08:49.636Z,4.88
2022-08-14T19:14:54.070Z,4.35
2022-08-14T19:21:01.498Z,4.57
2022-08-14T19:27:25.162Z,5.35
2022-08-14T19:33:47.561Z,4.60
2022-08-14T19:39:49.312Z,5.05
2022-08-14T19:45:56.096Z,4.72
2022-08-14T19:51:58.029Z,4.50
2022-08-14T19:58:01.453Z,4.43
2022-08-14T20:04:44.945Z,4.60
2022-08-14T20:11:12.379Z,4.13
2022-08-14T20:17:03.184Z,5.22
2022-08-14T20:23:12.434Z,4.80
2022-08-14T20:29:29.943Z,4.80
2022-08-14T20:35:44.140Z,4.88
2022-08-14T20:41:51.200Z,5.05
2022-08-14T20:48:07.344Z,4.70
2022-08-14T20:54:21.069Z,5.38
2022-08-14T21:00:52.133Z,4.80
2022-08-14T21:07:25.726Z,4.90
2022-08-14T21:13:27.680Z,5.20
2022-08-14T21:19:43.924Z,5.00
2022-08-14T21:25:52.489Z,5.15
2022-08-14T21:31:56.453Z,4.75
2022-08-14T21:37:58.662Z,4.93
2022-08-14T21:44:17.634Z,4.57
2022-08-14T21:50:38.756Z,5.15
2022-08-14T21:56:57.847Z,4.22
2022-08-14T22:02:59.837Z,5.03
2022-08-14T22:09:02.310Z,4.47
2022-08-14T22:15:06.522Z,4.50
2022-08-14T22:21:16.575Z,4.55
2022-08-14T22:27:18.901Z,4.35
2022-08-14T22:33:31.038Z,3.97
2022-08-14T22:40:17.272Z,4.57
2022-08-14T22:52:33.126Z,4.00
2022-08-14T22:58:34.664Z,4.25
2022-08-14T23:04:53.958Z,4.30
2022-08-14T23:10:56.350Z,4.40
2022-08-14T23:16:58.153Z,4.20
2022-08-14T23:23:00.159Z,4.40
2022-08-14T23:29:03.120Z,4.20
2022-08-14T23:35:07.258Z,4.22
2022-08-14T23:41:12.717Z,4.07
2022-08-14T23:47:26.212Z,4.22
2022-08-14T23:53:47.755Z,4.07
2022-08-14T23:59:54.842Z,4.32
